Terminal Aerodrome Forecast
Issued by NWS Cleveland, OH

Home | Current Version | Previous Version | Graphics & Text | Print | Product List | Glossary On
Versions: 1 2 3 4 5 6 7 8 9 10 11 12 13 14 15 16 17 18 19 20 21 22 23 24 25
000
FTUS41 KCLE 270810 AAA
TAFCLE
TAF AMD
KCLE 270810Z 2708/2812 VRB03KT P6SM SCT025 OVC035
     FM271200 36005KT P6SM SCT025
      TEMPO 2712/2715 BKN025
     FM271500 36007KT P6SM SCT040
     FM271900 01006KT P6SM FEW040 SCT250
     FM280200 15003KT P6SM SCT250=

USA.gov is the U.S. government's official web portal to all federal, state and local government web resources and services.